createdAt,value
2017-12-27T00:00:39.354Z,983.86
2017-12-27T00:01:19.214Z,983.85
2017-12-27T00:01:59.782Z,983.78
2017-12-27T00:02:40.182Z,983.8
2017-12-27T00:03:20.711Z,983.79
2017-12-27T00:04:04.904Z,983.76
2017-12-27T00:04:48.292Z,983.75
2017-12-27T00:05:28.770Z,983.74
2017-12-27T00:06:09.939Z,983.71
2017-12-27T00:06:50.316Z,983.7
2017-12-27T00:07:30.839Z,983.68
2017-12-27T00:08:11.178Z,983.7
2017-12-27T00:08:52.974Z,983.71
2017-12-27T00:09:33.353Z,983.66
2017-12-27T00:10:13.738Z,983.66
2017-12-27T00:10:54.698Z,983.63
2017-12-27T00:11:36.947Z,983.19
2017-12-27T00:12:17.811Z,983.62
2017-12-27T00:12:59.369Z,983.56
2017-12-27T00:13:39.796Z,983.65
2017-12-27T00:14:20.517Z,983.55
2017-12-27T00:15:00.739Z,983.64
2017-12-27T00:15:41.171Z,983.58
2017-12-27T00:16:21.914Z,983.62
2017-12-27T00:17:03.024Z,983.66
2017-12-27T00:17:44.506Z,983.56
2017-12-27T00:18:24.888Z,983.56
2017-12-27T00:19:05.286Z,983.52
2017-12-27T00:19:45.894Z,983.52
2017-12-27T00:20:26.347Z,983.53
2017-12-27T00:21:07.693Z,983.48
2017-12-27T00:21:48.100Z,983.51
2017-12-27T00:22:31.776Z,983.43
2017-12-27T00:23:12.261Z,983.43
2017-12-27T00:23:54.690Z,983.34
2017-12-27T00:24:35.226Z,983.38
2017-12-27T00:25:15.613Z,983.42
2017-12-27T00:25:56.008Z,983.36
2017-12-27T00:26:37.068Z,983.36
2017-12-27T00:27:17.100Z,983.37
2017-12-27T00:27:59.594Z,983.35
2017-12-27T00:28:40.107Z,983.37
2017-12-27T00:29:20.451Z,983.37
2017-12-27T00:30:00.997Z,983.34
2017-12-27T00:30:41.650Z,983.29
2017-12-27T00:31:22.278Z,983.3
2017-12-27T00:32:02.805Z,983.29
2017-12-27T00:32:43.114Z,983.24
2017-12-27T00:33:23.959Z,983.27
2017-12-27T00:34:04.484Z,983.29
2017-12-27T00:34:44.802Z,983.28
2017-12-27T00:35:25.218Z,983.22
2017-12-27T00:36:05.956Z,983.26
2017-12-27T00:36:46.108Z,983.26
2017-12-27T00:37:29.185Z,983.28
2017-12-27T00:39:29.869Z,983.13
2017-12-27T00:41:52.310Z,983.05
2017-12-27T00:42:35.110Z,983.04
2017-12-27T00:43:15.548Z,983.03
2017-12-27T00:43:56.391Z,983.01
2017-12-27T00:44:36.932Z,982.95
2017-12-27T00:45:20.174Z,982.95
2017-12-27T00:46:00.866Z,982.91
2017-12-27T00:46:41.408Z,982.88
2017-12-27T00:47:21.735Z,982.85
2017-12-27T00:48:02.183Z,982.83
2017-12-27T00:48:42.584Z,982.82
2017-12-27T00:49:29.553Z,982.79
2017-12-27T00:50:10.034Z,982.72
2017-12-27T00:50:50.725Z,982.68
2017-12-27T00:51:33.657Z,982.69
2017-12-27T00:52:14.065Z,982.65
2017-12-27T00:52:55.924Z,982.68
2017-12-27T00:53:43.503Z,982.6
2017-12-27T00:54:23.998Z,982.6
2017-12-27T00:55:04.384Z,982.56
2017-12-27T00:55:45.075Z,982.52
2017-12-27T00:56:25.980Z,982.57
2017-12-27T00:57:06.298Z,982.48
2017-12-27T00:57:47.019Z,982.49
2017-12-27T00:58:27.439Z,982.47
2017-12-27T00:59:09.532Z,982.5
2017-12-27T00:59:50.367Z,982.47
2017-12-27T01:00:30.857Z,982.47
2017-12-27T01:01:11.213Z,982.44
2017-12-27T01:01:51.553Z,982.39
2017-12-27T01:02:32.463Z,982.39
2017-12-27T01:03:13.090Z,982.33
2017-12-27T01:03:55.359Z,982.32
2017-12-27T01:04:35.863Z,982.28
2017-12-27T01:05:16.335Z,982.24
2017-12-27T01:05:56.672Z,982.27
2017-12-27T01:06:37.172Z,982.17
2017-12-27T01:07:18.283Z,982.14
2017-12-27T01:08:00.240Z,982.11
2017-12-27T01:08:40.614Z,982.1
2017-12-27T01:09:21.069Z,982.1
2017-12-27T01:10:01.634Z,982.11
2017-12-27T01:10:42.136Z,982.16
2017-12-27T01:11:22.561Z,982.19
2017-12-27T01:12:02.973Z,982.12
2017-12-27T01:12:43.756Z,982.09
2017-12-27T01:13:24.836Z,982.12
2017-12-27T01:14:05.659Z,982.05
2017-12-27T01:14:46.118Z,982.08
2017-12-27T01:15:26.788Z,982.07
2017-12-27T01:16:07.419Z,982.05
2017-12-27T01:16:47.803Z,982.06
2017-12-27T01:17:28.720Z,982.03
2017-12-27T01:18:09.305Z,982.01
2017-12-27T01:18:49.526Z,981.99
2017-12-27T01:21:21.022Z,981.85
2017-12-27T01:22:05.561Z,981.87
2017-12-27T01:22:45.848Z,981.8
2017-12-27T01:23:26.214Z,981.85
2017-12-27T01:24:06.610Z,981.76
2017-12-27T01:24:47.471Z,981.83
2017-12-27T01:25:27.681Z,981.81
2017-12-27T01:26:08.116Z,981.77
2017-12-27T01:26:48.693Z,981.81
2017-12-27T01:27:29.345Z,981.8
2017-12-27T01:28:09.942Z,981.76
2017-12-27T01:28:50.360Z,981.71
2017-12-27T01:29:31.601Z,981.7
2017-12-27T01:30:14.967Z,981.66
2017-12-27T01:30:55.591Z,981.63
2017-12-27T01:31:37.416Z,981.62
2017-12-27T01:32:18.295Z,981.55
2017-12-27T01:32:59.082Z,981.55
2017-12-27T01:33:40.853Z,981.6
2017-12-27T01:34:21.401Z,981.59
2017-12-27T01:35:02.796Z,981.48
2017-12-27T01:35:43.274Z,981.59
2017-12-27T01:36:23.755Z,981.46
2017-12-27T01:37:04.205Z,981.38
2017-12-27T01:37:44.628Z,981.42
2017-12-27T01:38:25.296Z,981.38
2017-12-27T01:39:05.536Z,981.37
2017-12-27T01:39:45.979Z,981.34
2017-12-27T01:40:26.406Z,981.33
2017-12-27T01:41:06.843Z,981.34
2017-12-27T01:41:47.277Z,981.32
2017-12-27T01:42:27.635Z,981.27
2017-12-27T01:43:08.524Z,981.24
2017-12-27T01:43:48.937Z,981.25
2017-12-27T01:44:29.404Z,981.22
2017-12-27T01:45:09.776Z,981.15
2017-12-27T01:45:50.239Z,981.22
2017-12-27T01:46:30.616Z,981.26
2017-12-27T01:47:12.809Z,981.16
2017-12-27T01:47:53.352Z,981.17
2017-12-27T01:48:33.775Z,981.16
2017-12-27T01:49:14.141Z,981.13
2017-12-27T01:49:54.572Z,981.11
2017-12-27T01:50:35.017Z,981.16
2017-12-27T01:51:15.382Z,981.11
2017-12-27T01:51:55.903Z,981.11
2017-12-27T01:52:36.399Z,981.13
2017-12-27T01:53:16.702Z,981.16
2017-12-27T01:53:58.893Z,981.05
2017-12-27T01:54:39.889Z,981.16
2017-12-27T01:57:10.033Z,981.15
2017-12-27T01:57:52.593Z,981.08
2017-12-27T02:00:11.766Z,980.99
2017-12-27T02:00:53.502Z,981.08
2017-12-27T02:01:33.803Z,981.09
2017-12-27T02:02:14.485Z,981.09
2017-12-27T02:02:54.958Z,981.03
2017-12-27T02:03:35.320Z,980.98
2017-12-27T02:04:15.765Z,980.98
2017-12-27T02:08:30.179Z,980.77
2017-12-27T02:09:17.850Z,980.68
2017-12-27T02:10:03.545Z,980.61
2017-12-27T02:10:44.145Z,980.58
2017-12-27T02:11:24.579Z,980.61
2017-12-27T02:13:40.108Z,980.4
2017-12-27T02:14:19.915Z,980.42
2017-12-27T02:15:00.951Z,980.31
2017-12-27T02:15:41.890Z,980.35
2017-12-27T02:16:22.449Z,980.22
2017-12-27T02:17:02.745Z,980.23
2017-12-27T02:17:43.357Z,980.18
2017-12-27T02:18:23.737Z,980.16
2017-12-27T02:19:04.280Z,980.21
2017-12-27T02:19:44.735Z,980.17
2017-12-27T02:20:25.773Z,980.2
2017-12-27T02:21:06.150Z,980.13
2017-12-27T02:21:47.008Z,980.06
2017-12-27T02:22:28.226Z,980.09
2017-12-27T02:23:08.946Z,980.09
2017-12-27T02:23:49.518Z,980.03
2017-12-27T02:24:30.072Z,980.06
2017-12-27T02:26:43.981Z,980.06
2017-12-27T02:27:28.271Z,979.9
2017-12-27T02:28:08.687Z,979.9
2017-12-27T02:28:49.149Z,979.91
2017-12-27T02:29:29.620Z,979.8
2017-12-27T02:30:10.283Z,979.84
2017-12-27T02:32:30.397Z,979.81
2017-12-27T02:34:52.256Z,979.65
2017-12-27T02:35:38.397Z,979.71
2017-12-27T02:36:20.005Z,979.72
2017-12-27T02:37:00.517Z,979.68
2017-12-27T02:37:41.066Z,979.7
2017-12-27T02:38:21.503Z,979.71
2017-12-27T02:39:03.222Z,979.67
2017-12-27T02:39:43.476Z,979.59
2017-12-27T02:40:24.007Z,979.67
2017-12-27T02:41:04.460Z,979.61
2017-12-27T02:41:44.828Z,979.8
2017-12-27T02:42:25.493Z,979.59
2017-12-27T02:43:06.165Z,979.61
2017-12-27T02:43:47.292Z,979.62
2017-12-27T02:44:29.072Z,979.48
2017-12-27T02:45:09.769Z,979.53
2017-12-27T02:45:50.141Z,979.4
2017-12-27T02:46:31.369Z,979.33
2017-12-27T02:47:11.603Z,979.49
2017-12-27T02:47:52.185Z,979.45
2017-12-27T02:48:32.769Z,979.44
2017-12-27T02:49:13.328Z,979.4
2017-12-27T02:49:53.810Z,979.33
2017-12-27T02:50:34.192Z,979.26
2017-12-27T02:51:16.729Z,979.18
2017-12-27T02:51:57.158Z,979.28
2017-12-27T02:52:37.534Z,979.2
2017-12-27T02:53:18.170Z,979.14
2017-12-27T02:53:58.495Z,979.15
2017-12-27T02:54:40.360Z,979.17
2017-12-27T02:55:20.781Z,979.12
2017-12-27T02:56:01.280Z,979.1
2017-12-27T02:56:41.638Z,979.05
2017-12-27T02:57:22.523Z,979.11
2017-12-27T02:58:03.447Z,979.02
2017-12-27T02:58:43.861Z,979
2017-12-27T02:59:24.433Z,979.03
2017-12-27T03:00:04.944Z,978.94
2017-12-27T03:00:45.365Z,978.99
2017-12-27T03:01:26.767Z,979.01
2017-12-27T03:02:07.306Z,978.98
2017-12-27T03:02:48.333Z,978.98
2017-12-27T03:03:30.652Z,978.86
2017-12-27T03:04:11.346Z,978.9
2017-12-27T03:04:51.469Z,978.85
2017-12-27T03:05:32.161Z,978.82
2017-12-27T03:06:12.689Z,978.81
2017-12-27T03:06:53.117Z,978.75
2017-12-27T03:07:34.382Z,978.8
2017-12-27T03:08:14.949Z,978.72
2017-12-27T03:08:58.089Z,978.76
2017-12-27T03:09:39.379Z,978.64
2017-12-27T03:10:19.778Z,978.73
2017-12-27T03:11:00.547Z,978.7
2017-12-27T03:11:41.822Z,978.68
2017-12-27T03:12:21.464Z,978.69
2017-12-27T03:13:01.979Z,978.67
2017-12-27T03:13:42.776Z,978.59
2017-12-27T03:14:23.165Z,978.68
2017-12-27T03:15:03.570Z,978.69
2017-12-27T03:15:45.786Z,978.67
2017-12-27T03:16:26.590Z,978.75
2017-12-27T03:17:06.981Z,978.65
2017-12-27T03:17:50.192Z,978.54
2017-12-27T03:18:30.634Z,978.57
2017-12-27T03:19:11.036Z,978.5
2017-12-27T03:19:51.781Z,978.54
2017-12-27T03:20:32.126Z,978.57
2017-12-27T03:21:13.393Z,978.51
2017-12-27T03:21:53.099Z,978.52
2017-12-27T03:22:36.218Z,978.54
2017-12-27T03:23:16.922Z,978.41
2017-12-27T03:23:59.406Z,978.48
2017-12-27T03:24:39.798Z,978.35
2017-12-27T03:25:21.882Z,978.38
2017-12-27T03:26:02.320Z,978.29
2017-12-27T03:26:42.757Z,978.4
2017-12-27T03:27:23.192Z,978.31
2017-12-27T03:28:04.306Z,978.38
2017-12-27T03:28:45.308Z,978.24
2017-12-27T03:29:26.644Z,978.16
2017-12-27T03:30:08.125Z,978.2
2017-12-27T03:30:48.568Z,978.19
2017-12-27T03:31:28.982Z,978.14
2017-12-27T03:32:09.345Z,978.2
2017-12-27T03:32:49.970Z,978.03
2017-12-27T03:33:30.417Z,978.14
2017-12-27T03:34:11.221Z,978.05
2017-12-27T03:34:51.981Z,977.99
2017-12-27T03:35:32.344Z,977.96
2017-12-27T03:36:12.788Z,978.04
2017-12-27T03:36:53.428Z,977.91
2017-12-27T03:37:33.927Z,978.01
2017-12-27T03:41:20.908Z,977.81
2017-12-27T03:42:01.282Z,977.84
2017-12-27T03:42:41.953Z,977.85
2017-12-27T03:43:22.330Z,977.81
2017-12-27T03:44:03.064Z,977.78
2017-12-27T03:44:43.532Z,977.8
2017-12-27T03:45:23.979Z,977.69
2017-12-27T03:46:04.386Z,977.72
2017-12-27T03:46:44.973Z,977.73
2017-12-27T03:47:25.402Z,977.68
2017-12-27T03:48:06.142Z,977.64
2017-12-27T03:48:46.523Z,977.62
2017-12-27T03:49:27.223Z,977.54
2017-12-27T03:50:07.848Z,977.63
2017-12-27T03:50:48.272Z,977.54
2017-12-27T03:51:28.909Z,977.52
2017-12-27T03:52:09.337Z,977.65
2017-12-27T03:52:50.316Z,977.59
2017-12-27T03:53:30.618Z,977.61
2017-12-27T03:54:11.153Z,977.5
2017-12-27T03:54:51.484Z,977.41
2017-12-27T03:55:32.782Z,977.43
2017-12-27T03:56:13.630Z,977.54
2017-12-27T03:56:53.837Z,977.36
2017-12-27T03:57:34.607Z,977.42
2017-12-27T03:59:59.926Z,977.24
2017-12-27T04:00:43.946Z,977.29
2017-12-27T04:01:26.042Z,977.25
2017-12-27T04:42:40.946Z,976.5
2017-12-27T04:43:28.798Z,976.51
2017-12-27T04:45:24.332Z,976.71
2017-12-27T04:46:05.016Z,976.57
2017-12-27T04:46:45.755Z,976.56
2017-12-27T04:47:26.245Z,976.59
2017-12-27T04:48:06.603Z,976.47
2017-12-27T04:48:47.187Z,976.57
2017-12-27T04:49:27.609Z,976.54
2017-12-27T04:50:07.936Z,976.52
2017-12-27T04:50:48.357Z,976.53
2017-12-27T04:51:29.006Z,976.58
2017-12-27T04:52:09.570Z,976.59
2017-12-27T04:52:49.883Z,976.65
2017-12-27T04:53:30.382Z,976.53
2017-12-27T04:54:10.914Z,976.59
2017-12-27T04:54:51.944Z,976.58
2017-12-27T04:55:32.024Z,976.63
2017-12-27T04:56:12.631Z,976.52
2017-12-27T04:56:53.160Z,976.57
2017-12-27T04:57:33.739Z,976.48
2017-12-27T04:58:14.341Z,976.37
2017-12-27T04:58:54.785Z,976.38
2017-12-27T04:59:35.632Z,976.43
2017-12-27T05:00:16.135Z,976.44
2017-12-27T05:00:56.862Z,976.52
2017-12-27T05:01:38.430Z,976.4
2017-12-27T05:02:19.195Z,976.41
2017-12-27T05:02:59.583Z,976.45
2017-12-27T05:03:39.961Z,976.44
2017-12-27T05:04:20.779Z,976.39
2017-12-27T05:05:02.064Z,976.4
2017-12-27T05:05:42.664Z,976.33
2017-12-27T05:06:23.160Z,976.34
2017-12-27T05:07:03.578Z,976.38
2017-12-27T05:07:44.221Z,976.36
2017-12-27T05:08:24.673Z,976.35
2017-12-27T05:09:05.280Z,976.3
2017-12-27T05:09:46.151Z,976.29
2017-12-27T05:10:26.613Z,976.43
2017-12-27T05:11:07.115Z,976.33
2017-12-27T05:11:47.547Z,976.38
2017-12-27T05:12:29.023Z,976.2
2017-12-27T05:13:09.596Z,976.27
2017-12-27T05:13:50.110Z,976.3
2017-12-27T05:14:30.619Z,976.33
2017-12-27T05:15:11.214Z,976.2
2017-12-27T05:15:51.903Z,976.29
2017-12-27T05:16:32.545Z,976.21
2017-12-27T05:17:12.979Z,976.35
2017-12-27T05:17:53.584Z,976.27
2017-12-27T05:18:34.226Z,976.23
2017-12-27T05:19:14.833Z,976.17
2017-12-27T05:19:55.998Z,976.3
2017-12-27T05:20:36.438Z,976.21
2017-12-27T05:21:16.847Z,976.34
2017-12-27T05:21:57.625Z,976.29
2017-12-27T05:24:32.976Z,976.2
2017-12-27T05:26:39.223Z,976
2017-12-27T05:27:19.777Z,976.18
2017-12-27T05:28:00.087Z,976.1
2017-12-27T05:28:46.263Z,976.22
2017-12-27T05:29:26.696Z,976.1
2017-12-27T05:30:07.070Z,976.09
2017-12-27T05:30:47.617Z,976.09
2017-12-27T05:31:30.874Z,976.04
2017-12-27T05:32:14.803Z,976.06
2017-12-27T05:32:56.153Z,976.03
2017-12-27T05:34:57.050Z,976.13
2017-12-27T05:35:38.199Z,975.97
2017-12-27T05:36:18.972Z,976.11
2017-12-27T05:36:59.662Z,976.05
2017-12-27T05:37:40.328Z,976.07
2017-12-27T05:38:21.101Z,975.98
2017-12-27T05:39:01.410Z,975.98
2017-12-27T05:39:41.945Z,976.01
2017-12-27T05:40:22.296Z,975.96
2017-12-27T05:41:02.897Z,976.04
2017-12-27T05:41:43.629Z,975.94
2017-12-27T05:42:24.514Z,975.97
2017-12-27T05:43:04.706Z,975.92
2017-12-27T05:43:45.262Z,975.94
2017-12-27T05:44:25.795Z,975.87
2017-12-27T05:45:06.869Z,975.92
2017-12-27T05:45:47.784Z,975.93
2017-12-27T05:46:28.345Z,975.83
2017-12-27T05:47:08.743Z,975.92
2017-12-27T05:47:49.406Z,975.93
2017-12-27T05:48:29.890Z,976.01
2017-12-27T05:49:10.292Z,975.91
2017-12-27T05:49:50.764Z,975.88
2017-12-27T05:50:31.526Z,975.86
2017-12-27T05:51:11.800Z,975.89
2017-12-27T05:51:52.465Z,975.88
2017-12-27T05:52:33.616Z,975.88
2017-12-27T05:53:13.947Z,975.86
2017-12-27T05:53:54.291Z,975.83
2017-12-27T05:59:47.722Z,975.79
2017-12-27T06:00:28.226Z,975.81
2017-12-27T06:01:08.871Z,975.93
2017-12-27T06:01:49.401Z,975.8
2017-12-27T06:02:30.693Z,975.85
2017-12-27T06:03:11.966Z,975.75
2017-12-27T06:03:52.089Z,975.73
2017-12-27T06:04:32.625Z,975.73
2017-12-27T06:05:13.115Z,975.78
2017-12-27T06:05:53.784Z,975.79
2017-12-27T06:06:34.203Z,975.75
2017-12-27T06:07:14.981Z,975.79
2017-12-27T06:07:55.596Z,975.8
2017-12-27T06:08:35.860Z,975.75
2017-12-27T06:09:17.120Z,975.75
2017-12-27T06:09:57.509Z,975.81
2017-12-27T06:10:37.969Z,975.72
2017-12-27T06:11:18.549Z,975.74
2017-12-27T06:11:59.102Z,975.7
2017-12-27T06:12:39.679Z,975.72
2017-12-27T06:13:21.164Z,975.72
2017-12-27T06:14:01.872Z,975.85
2017-12-27T06:14:42.307Z,975.76
2017-12-27T06:15:22.764Z,975.7
2017-12-27T06:16:03.073Z,975.67
2017-12-27T06:16:44.346Z,975.94
2017-12-27T06:17:24.653Z,975.74
2017-12-27T06:18:05.121Z,975.67
2017-12-27T06:18:46.096Z,975.61
2017-12-27T06:19:26.589Z,975.9
2017-12-27T06:20:06.909Z,975.69
2017-12-27T06:20:47.691Z,975.43
2017-12-27T06:21:28.103Z,975.72
2017-12-27T06:22:09.384Z,975.73
2017-12-27T06:22:49.805Z,975.63
2017-12-27T06:23:30.331Z,975.6
2017-12-27T06:24:10.833Z,975.68
2017-12-27T06:24:51.215Z,975.72
2017-12-27T06:25:32.218Z,975.65
2017-12-27T06:27:53.902Z,975.63
2017-12-27T06:28:35.692Z,975.62
2017-12-27T06:29:16.152Z,975.69
2017-12-27T06:29:56.716Z,975.72
2017-12-27T06:30:37.045Z,975.59
2017-12-27T06:31:17.468Z,975.66
2017-12-27T06:31:57.857Z,975.62
2017-12-27T06:32:38.284Z,975.67
2017-12-27T06:33:18.818Z,975.52
2017-12-27T06:33:59.585Z,975.6
2017-12-27T06:35:59.350Z,975.7
2017-12-27T06:36:40.631Z,975.49
2017-12-27T06:37:21.041Z,975.66
2017-12-27T06:38:01.592Z,975.5
2017-12-27T06:38:41.904Z,975.46
2017-12-27T06:39:22.519Z,975.43
2017-12-27T06:40:02.876Z,975.56
2017-12-27T06:40:43.918Z,975.51
2017-12-27T06:41:24.605Z,975.6
2017-12-27T06:42:05.152Z,975.54
2017-12-27T06:42:46.092Z,975.55
2017-12-27T06:43:26.944Z,975.55
2017-12-27T06:44:07.439Z,975.49
2017-12-27T06:44:47.994Z,975.53
2017-12-27T06:45:28.320Z,975.38
2017-12-27T06:46:09.136Z,975.58
2017-12-27T06:46:49.826Z,975.45
2017-12-27T06:47:30.168Z,975.42
2017-12-27T06:48:10.622Z,975.39
2017-12-27T06:48:51.049Z,975.51
2017-12-27T06:49:31.409Z,975.5
2017-12-27T06:50:11.759Z,975.45
2017-12-27T06:50:52.169Z,975.58
2017-12-27T06:51:32.727Z,975.43
2017-12-27T06:52:13.338Z,975.53
2017-12-27T06:52:53.576Z,975.45
2017-12-27T06:53:34.394Z,975.33
2017-12-27T06:54:14.866Z,975.38
2017-12-27T06:54:55.270Z,975.37
2017-12-27T06:55:36.645Z,975.37
2017-12-27T06:56:17.269Z,975.32
2017-12-27T06:56:57.914Z,975.38
2017-12-27T06:57:38.538Z,975.61
2017-12-27T06:58:19.093Z,975.46
2017-12-27T06:58:59.644Z,975.41
2017-12-27T06:59:39.831Z,975.34
2017-12-27T07:00:20.559Z,975.2
2017-12-27T07:01:00.947Z,975.25
2017-12-27T07:01:41.454Z,975.28
2017-12-27T07:02:21.799Z,975.38
2017-12-27T07:03:02.453Z,975.2
2017-12-27T07:03:43.772Z,975.34
2017-12-27T07:04:24.205Z,975.33
2017-12-27T07:08:33.839Z,975.31
2017-12-27T07:09:14.158Z,975.31
2017-12-27T07:09:54.725Z,975.24
2017-12-27T07:10:35.694Z,975.26
2017-12-27T07:11:16.091Z,975.31
2017-12-27T07:11:56.491Z,975.27
2017-12-27T07:15:50.976Z,975.22
2017-12-27T07:16:32.226Z,975.27
2017-12-27T07:17:12.800Z,975.31
2017-12-27T07:17:54.132Z,975.3
2017-12-27T07:18:34.623Z,975.18
2017-12-27T07:19:14.928Z,975.41
2017-12-27T07:19:55.478Z,975.2
2017-12-27T07:20:35.897Z,975.26
2017-12-27T07:21:16.805Z,975.22
2017-12-27T07:21:57.582Z,975.35
2017-12-27T07:22:38.325Z,975.21
2017-12-27T07:23:18.758Z,975.22
2017-12-27T07:23:59.185Z,975.17
2017-12-27T07:24:39.700Z,975.2
2017-12-27T07:25:20.134Z,975.26
2017-12-27T07:26:00.812Z,975.21
2017-12-27T07:26:41.315Z,975.22
2017-12-27T07:27:21.956Z,975.2
2017-12-27T07:28:02.356Z,975.13
2017-12-27T07:28:42.857Z,975.27
2017-12-27T07:29:23.349Z,975.21
2017-12-27T07:30:04.116Z,975.21
2017-12-27T07:30:44.664Z,975.2
2017-12-27T07:31:25.392Z,975.24
2017-12-27T07:32:05.824Z,975.22
2017-12-27T07:32:46.253Z,975.18
2017-12-27T07:33:27.638Z,975.23
2017-12-27T07:34:08.020Z,975.23
2017-12-27T07:34:48.560Z,975.14
2017-12-27T07:35:28.928Z,975.21
2017-12-27T07:36:09.540Z,975.19
2017-12-27T07:36:49.913Z,975.18
2017-12-27T07:37:30.394Z,975.22
2017-12-27T07:38:10.734Z,975.15
2017-12-27T07:38:51.256Z,975.19
2017-12-27T07:39:31.834Z,975.19
2017-12-27T07:40:12.225Z,975.19
2017-12-27T07:40:52.718Z,975.09
2017-12-27T07:41:34.052Z,975.29
2017-12-27T07:42:14.436Z,975.24
2017-12-27T07:42:54.861Z,975.16
2017-12-27T07:43:36.312Z,975.27
2017-12-27T07:44:17.431Z,975.12
2017-12-27T07:44:57.753Z,975.16
2017-12-27T07:45:38.169Z,975.21
2017-12-27T07:46:18.664Z,975.18
2017-12-27T07:46:59.165Z,975.16
2017-12-27T07:47:39.522Z,975.24
2017-12-27T07:48:19.895Z,975.29
2017-12-27T07:49:00.640Z,975.13
2017-12-27T07:49:41.432Z,975.11
2017-12-27T07:50:22.322Z,975.11
2017-12-27T07:51:02.359Z,975.09
2017-12-27T07:51:42.944Z,975.18
2017-12-27T07:52:23.178Z,975.08
2017-12-27T07:53:03.712Z,975.12
2017-12-27T07:53:44.131Z,975.09
2017-12-27T07:54:24.679Z,975.11
2017-12-27T07:55:05.092Z,975.04
2017-12-27T07:55:45.500Z,975.14
2017-12-27T07:56:25.958Z,975.11
2017-12-27T07:57:06.449Z,975
2017-12-27T07:57:46.793Z,975.02
2017-12-27T07:58:27.272Z,975.01
2017-12-27T07:59:07.662Z,975.15
2017-12-27T07:59:48.265Z,974.95
2017-12-27T08:00:28.763Z,974.96
2017-12-27T08:01:09.253Z,974.97
2017-12-27T08:01:49.558Z,974.89
2017-12-27T08:02:29.958Z,974.98
2017-12-27T08:03:10.482Z,974.96
2017-12-27T08:03:51.616Z,974.97
2017-12-27T08:04:32.014Z,974.96
2017-12-27T08:05:13.233Z,974.91
2017-12-27T08:05:54.224Z,974.89
2017-12-27T08:06:34.961Z,974.95
2017-12-27T08:07:16.261Z,974.95
2017-12-27T08:07:56.896Z,974.88
2017-12-27T08:08:37.733Z,974.87
2017-12-27T08:09:17.898Z,974.9
2017-12-27T08:09:58.794Z,974.88
2017-12-27T08:10:38.907Z,974.85
2017-12-27T08:11:19.308Z,974.83
2017-12-27T08:12:01.142Z,974.86
2017-12-27T08:12:41.270Z,974.85
2017-12-27T08:13:21.987Z,974.85
2017-12-27T08:14:02.406Z,974.85
2017-12-27T08:14:43.604Z,974.87
2017-12-27T08:15:25.768Z,974.88
2017-12-27T08:16:06.163Z,974.91
2017-12-27T08:18:19.544Z,974.83
2017-12-27T08:19:07.766Z,974.87
2017-12-27T08:19:47.060Z,974.86
2017-12-27T08:20:29.767Z,974.84
2017-12-27T08:21:10.580Z,974.83
2017-12-27T08:21:50.933Z,974.85
2017-12-27T08:22:31.531Z,974.86
2017-12-27T08:23:11.827Z,974.89
2017-12-27T08:23:52.304Z,974.85
2017-12-27T08:24:36.735Z,974.79
2017-12-27T08:25:19.956Z,974.91
2017-12-27T08:26:01.594Z,974.85
2017-12-27T08:26:41.913Z,974.83
2017-12-27T08:27:23.331Z,974.88
2017-12-27T08:28:03.513Z,974.85
2017-12-27T08:28:44.255Z,974.85
2017-12-27T08:29:27.160Z,974.88
2017-12-27T08:30:05.505Z,974.86
2017-12-27T08:30:45.933Z,974.83
2017-12-27T08:31:27.044Z,974.84
2017-12-27T08:32:07.419Z,974.85
2017-12-27T08:32:47.895Z,974.86
2017-12-27T08:33:29.777Z,974.83
2017-12-27T08:34:11.203Z,974.87
2017-12-27T08:34:51.348Z,974.84
2017-12-27T08:35:33.740Z,974.83
2017-12-27T08:36:15.871Z,974.85
2017-12-27T08:36:56.535Z,974.87
2017-12-27T08:37:38.398Z,974.86
2017-12-27T08:38:19.411Z,974.9
2017-12-27T08:39:00.672Z,974.83
2017-12-27T08:39:41.120Z,974.82
2017-12-27T08:40:21.938Z,974.91
2017-12-27T08:41:03.669Z,974.86
2017-12-27T08:41:43.902Z,974.89
2017-12-27T08:42:25.063Z,974.92
2017-12-27T08:43:06.153Z,974.9
2017-12-27T08:43:47.227Z,974.89
2017-12-27T08:44:29.559Z,974.86
2017-12-27T08:45:10.024Z,974.9
2017-12-27T08:45:51.434Z,974.88
2017-12-27T08:46:32.944Z,974.88
2017-12-27T08:47:14.252Z,974.88
2017-12-27T08:47:55.112Z,974.84
2017-12-27T08:48:35.748Z,974.88
2017-12-27T08:49:15.886Z,974.88
2017-12-27T08:49:57.073Z,974.87
2017-12-27T08:50:37.790Z,974.9
2017-12-27T08:51:19.091Z,974.87
2017-12-27T08:53:47.496Z,974.81
2017-12-27T08:54:28.052Z,974.91
2017-12-27T08:55:12.602Z,974.91
2017-12-27T08:55:53.763Z,974.87
2017-12-27T08:56:35.543Z,974.91
2017-12-27T08:57:16.578Z,974.96
2017-12-27T08:57:56.948Z,974.89
2017-12-27T08:58:39.440Z,974.88
2017-12-27T08:59:20.240Z,974.89
2017-12-27T09:00:00.691Z,974.89
2017-12-27T09:00:41.660Z,974.92
2017-12-27T09:01:21.851Z,974.91
2017-12-27T09:02:04.245Z,974.89
2017-12-27T09:02:45.113Z,974.88
2017-12-27T09:03:26.933Z,974.84
2017-12-27T09:04:10.738Z,974.84
2017-12-27T09:10:55.677Z,974.84
2017-12-27T09:11:38.582Z,974.78
2017-12-27T09:12:19.331Z,974.74
2017-12-27T09:13:00.444Z,974.76
2017-12-27T09:13:42.181Z,974.71
2017-12-27T09:14:22.438Z,974.74
2017-12-27T09:15:02.891Z,974.71
2017-12-27T09:15:43.563Z,974.77
2017-12-27T09:16:23.899Z,974.72
2017-12-27T09:17:04.402Z,974.74
2017-12-27T09:17:44.694Z,974.75
2017-12-27T09:18:25.202Z,974.74
2017-12-27T09:19:05.844Z,974.76
2017-12-27T09:19:46.801Z,974.8
2017-12-27T09:20:27.455Z,974.9
2017-12-27T09:21:08.815Z,974.8
2017-12-27T09:21:48.860Z,974.81
2017-12-27T09:22:29.866Z,974.79
2017-12-27T09:23:10.587Z,974.85
2017-12-27T09:23:50.832Z,974.9
2017-12-27T09:24:33.834Z,974.87
2017-12-27T09:25:14.544Z,974.85
2017-12-27T09:25:54.865Z,974.92
2017-12-27T09:26:35.265Z,974.88
2017-12-27T09:27:16.191Z,974.85
2017-12-27T09:27:56.558Z,974.86
2017-12-27T09:28:37.834Z,974.8
2017-12-27T09:29:20.204Z,974.9
2017-12-27T09:30:00.290Z,974.96
2017-12-27T09:30:40.982Z,974.9
2017-12-27T09:31:21.422Z,974.93
2017-12-27T09:33:44.485Z,974.91
2017-12-27T09:34:41.505Z,974.91
2017-12-27T09:35:21.948Z,974.92
2017-12-27T09:36:02.818Z,974.93
2017-12-27T09:36:43.511Z,974.89
2017-12-27T09:37:25.735Z,974.91
2017-12-27T09:38:06.155Z,974.95
2017-12-27T09:38:46.717Z,975.02
2017-12-27T09:39:27.332Z,974.94
2017-12-27T09:40:08.531Z,974.96
2017-12-27T09:40:48.968Z,974.94
2017-12-27T09:41:29.362Z,974.95
2017-12-27T09:42:12.404Z,974.88
2017-12-27T09:42:55.391Z,974.91
2017-12-27T09:43:38.067Z,974.92
2017-12-27T09:44:21.327Z,974.94
2017-12-27T09:45:01.680Z,974.89
2017-12-27T09:45:42.625Z,974.97
2017-12-27T09:46:23.334Z,974.93
2017-12-27T09:47:04.919Z,974.94
2017-12-27T09:47:45.853Z,974.93
2017-12-27T09:48:26.054Z,974.92
2017-12-27T09:49:06.671Z,974.97
2017-12-27T09:49:47.595Z,975.02
2017-12-27T09:50:32.488Z,974.99
2017-12-27T09:51:13.025Z,974.96
2017-12-27T09:52:01.085Z,975.01
2017-12-27T09:52:39.568Z,974.98
2017-12-27T09:53:19.938Z,975.03
2017-12-27T09:54:05.446Z,975.02
2017-12-27T09:54:42.758Z,975.03
2017-12-27T09:55:23.196Z,975.03
2017-12-27T09:56:04.144Z,975.01
2017-12-27T09:56:44.638Z,975.04
2017-12-27T09:57:25.864Z,975.06
2017-12-27T09:58:06.281Z,975.07
2017-12-27T09:58:47.019Z,975.04
2017-12-27T09:59:27.140Z,975.04
2017-12-27T10:00:08.423Z,975.02
2017-12-27T10:00:48.221Z,975.02
2017-12-27T10:01:28.653Z,975.06
2017-12-27T10:02:10.939Z,975.01
2017-12-27T10:02:52.211Z,975.01
2017-12-27T10:45:43.849Z,974.62
2017-12-27T10:46:26.923Z,974.68
2017-12-27T10:47:07.376Z,974.65
2017-12-27T10:47:47.850Z,974.59
2017-12-27T10:48:28.544Z,974.56
2017-12-27T10:49:13.188Z,974.57
2017-12-27T10:49:56.204Z,974.64
2017-12-27T10:50:37.082Z,974.58